createdAt,value
2017-12-27T00:02:04.103Z,5.20
2017-12-27T00:04:37.333Z,4.25
2017-12-27T00:07:10.587Z,8.70
2017-12-27T00:09:43.771Z,19.50
2017-12-27T00:12:17.043Z,6.25
2017-12-27T00:17:49.870Z,10.40
2017-12-27T00:20:32.203Z,8.30
2017-12-27T00:23:05.395Z,4.10
2017-12-27T00:25:38.686Z,5.10
2017-12-27T00:28:11.927Z,5.03
2017-12-27T00:30:45.125Z,5.25
2017-12-27T00:33:12.612Z,5.78
2017-12-27T00:35:40.155Z,5.97
2017-12-27T00:38:07.700Z,4.60
2017-12-27T00:40:36.015Z,7.93
2017-12-27T00:43:03.503Z,4.03
2017-12-27T00:45:31.763Z,8.38
2017-12-27T00:47:59.208Z,6.68
2017-12-27T00:50:26.667Z,3.22
2017-12-27T00:52:55.020Z,6.78
2017-12-27T00:55:23.244Z,2.42
2017-12-27T00:57:50.720Z,5.03
2017-12-27T01:00:18.964Z,6.55
2017-12-27T01:02:47.951Z,4.65
2017-12-27T01:05:15.477Z,13.30
2017-12-27T01:07:42.919Z,10.90
2017-12-27T01:10:10.471Z,6.55
2017-12-27T01:12:38.024Z,7.20
2017-12-27T01:15:05.481Z,25.15
2017-12-27T01:17:33.695Z,4.50
2017-12-27T01:20:01.149Z,7.68
2017-12-27T01:22:28.703Z,4.30
2017-12-27T01:24:56.163Z,12.35
2017-12-27T01:27:24.411Z,4.75
2017-12-27T01:29:51.917Z,4.82
2017-12-27T01:32:19.402Z,6.45
2017-12-27T01:34:46.948Z,4.28
2017-12-27T01:37:15.191Z,6.78
2017-12-27T01:39:42.762Z,6.35
2017-12-27T01:42:10.979Z,6.82
2017-12-27T01:44:38.444Z,3.15
2017-12-27T01:47:14.481Z,6.43
2017-12-27T01:49:41.947Z,8.70
2017-12-27T01:52:10.183Z,9.38
2017-12-27T01:54:37.662Z,5.35
2017-12-27T01:57:05.114Z,6.75
2017-12-27T01:59:32.555Z,10.48
2017-12-27T02:02:00.023Z,9.80
2017-12-27T02:04:27.491Z,4.18
2017-12-27T02:06:54.942Z,4.70
2017-12-27T02:09:22.391Z,8.80
2017-12-27T02:11:50.613Z,5.95
2017-12-27T02:14:18.059Z,6.70
2017-12-27T02:16:45.623Z,5.25
2017-12-27T02:19:13.068Z,9.25
2017-12-27T02:21:41.319Z,4.10
2017-12-27T02:24:08.898Z,9.90
2017-12-27T02:26:37.128Z,10.15
2017-12-27T02:29:04.779Z,2.53
2017-12-27T02:31:33.011Z,4.18
2017-12-27T02:34:00.466Z,10.50
2017-12-27T02:36:28.021Z,6.53
2017-12-27T02:38:56.411Z,6.25
2017-12-27T02:41:24.848Z,6.22
2017-12-27T02:43:52.395Z,11.38
2017-12-27T02:46:19.851Z,8.38
2017-12-27T02:48:48.075Z,4.20
2017-12-27T02:51:15.638Z,4.35
2017-12-27T02:53:43.110Z,5.15
2017-12-27T02:56:10.615Z,4.55
2017-12-27T02:58:38.067Z,4.30
2017-12-27T03:01:06.328Z,7.10
2017-12-27T03:03:34.551Z,4.28
2017-12-27T03:06:02.019Z,7.00
2017-12-27T03:08:29.574Z,3.65
2017-12-27T03:10:57.023Z,2.42
2017-12-27T03:13:25.243Z,6.78
2017-12-27T03:15:52.711Z,3.67
2017-12-27T03:18:20.967Z,5.53
2017-12-27T03:20:48.411Z,4.45
2017-12-27T03:23:15.954Z,4.75
2017-12-27T03:25:43.503Z,3.42
2017-12-27T03:28:10.955Z,9.20
2017-12-27T03:30:39.219Z,3.83
2017-12-27T03:33:07.470Z,4.85
2017-12-27T03:35:35.723Z,4.40
2017-12-27T03:38:03.276Z,3.35
2017-12-27T03:40:30.740Z,5.37
2017-12-27T03:42:58.203Z,4.32
2017-12-27T03:45:25.691Z,4.68
2017-12-27T03:47:53.235Z,3.45
2017-12-27T03:50:20.791Z,4.18
2017-12-27T03:52:49.003Z,3.95
2017-12-27T03:55:16.492Z,2.80
2017-12-27T03:57:44.751Z,2.35
2017-12-27T04:00:12.987Z,2.90
2017-12-27T04:02:40.460Z,4.85
2017-12-27T04:05:08.677Z,2.67
2017-12-27T04:07:36.161Z,5.22
2017-12-27T04:10:04.412Z,2.83
2017-12-27T04:12:32.669Z,5.03
2017-12-27T04:15:00.107Z,5.07
2017-12-27T04:17:27.652Z,3.03
2017-12-27T04:19:55.104Z,1.90
2017-12-27T04:22:23.342Z,2.08
2017-12-27T04:24:50.808Z,2.42
2017-12-27T04:27:19.053Z,2.25
2017-12-27T04:29:46.602Z,3.20
2017-12-27T04:32:14.142Z,5.55
2017-12-27T04:34:42.380Z,3.50
2017-12-27T04:37:09.894Z,5.10
2017-12-27T04:39:37.386Z,3.65
2017-12-27T04:42:04.894Z,6.93
2017-12-27T04:44:32.356Z,3.05
2017-12-27T04:46:59.811Z,5.85
2017-12-27T04:49:27.267Z,3.33
2017-12-27T04:51:55.513Z,5.72
2017-12-27T04:54:22.977Z,3.05
2017-12-27T04:56:51.204Z,3.42
2017-12-27T04:59:19.639Z,1.77
2017-12-27T05:01:47.097Z,5.07
2017-12-27T05:04:14.547Z,6.07
2017-12-27T05:06:42.017Z,2.00
2017-12-27T05:09:10.264Z,2.85
2017-12-27T05:11:37.712Z,1.98
2017-12-27T05:14:06.015Z,4.22
2017-12-27T05:16:33.511Z,4.03
2017-12-27T05:19:01.741Z,2.95
2017-12-27T05:21:29.204Z,4.43
2017-12-27T05:23:56.750Z,2.08
2017-12-27T05:26:24.219Z,2.45
2017-12-27T05:28:51.671Z,2.95
2017-12-27T05:31:19.134Z,3.78
2017-12-27T05:33:46.591Z,3.00
2017-12-27T05:36:14.112Z,2.05
2017-12-27T05:38:41.598Z,5.37
2017-12-27T05:41:09.055Z,5.57
2017-12-27T05:43:37.311Z,1.85
2017-12-27T05:46:05.566Z,2.58
2017-12-27T05:48:33.800Z,3.53
2017-12-27T05:51:01.318Z,4.18
2017-12-27T05:53:28.755Z,3.53
2017-12-27T05:55:56.216Z,4.50
2017-12-27T05:58:23.672Z,2.55
2017-12-27T06:00:51.151Z,4.32
2017-12-27T06:03:19.499Z,2.10
2017-12-27T06:05:47.712Z,4.50
2017-12-27T06:08:15.250Z,2.90
2017-12-27T06:10:42.798Z,1.90
2017-12-27T06:13:10.279Z,3.33
2017-12-27T06:15:38.542Z,3.67
2017-12-27T06:18:06.083Z,3.45
2017-12-27T06:20:33.551Z,2.30
2017-12-27T06:23:01.771Z,1.98
2017-12-27T06:31:25.748Z,4.30
2017-12-27T06:33:53.207Z,2.17
2017-12-27T06:36:21.466Z,2.12
2017-12-27T06:38:49.699Z,3.17
2017-12-27T06:41:17.163Z,4.60
2017-12-27T06:43:45.426Z,2.30
2017-12-27T06:46:13.652Z,9.70
2017-12-27T06:48:41.174Z,2.22
2017-12-27T06:51:08.643Z,5.95
2017-12-27T06:53:36.104Z,3.75
2017-12-27T06:56:04.327Z,6.55
2017-12-27T06:58:31.808Z,2.55
2017-12-27T07:01:00.080Z,3.83
2017-12-27T07:03:28.307Z,2.37
2017-12-27T07:05:55.795Z,5.70
2017-12-27T07:08:23.316Z,3.65
2017-12-27T07:10:51.552Z,3.40
2017-12-27T07:13:19.008Z,4.72
2017-12-27T07:15:46.541Z,2.97
2017-12-27T07:18:14.775Z,6.32
2017-12-27T07:20:42.232Z,4.65
2017-12-27T07:23:10.460Z,1.60
2017-12-27T07:25:37.941Z,2.08
2017-12-27T07:28:06.215Z,3.75
2017-12-27T07:30:34.444Z,2.10
2017-12-27T07:33:02.004Z,1.90
2017-12-27T07:35:30.232Z,2.15
2017-12-27T07:37:57.688Z,2.03
2017-12-27T07:40:25.162Z,2.37
2017-12-27T07:42:52.629Z,3.00
2017-12-27T07:45:20.124Z,2.17
2017-12-27T07:47:48.367Z,2.37
2017-12-27T07:50:15.828Z,3.10
2017-12-27T07:52:44.096Z,3.58
2017-12-27T07:55:12.319Z,2.65
2017-12-27T07:57:39.779Z,7.78
2017-12-27T08:00:07.259Z,2.55
2017-12-27T08:02:34.735Z,2.37
2017-12-27T08:05:02.195Z,2.62
2017-12-27T08:07:29.659Z,3.55
2017-12-27T08:09:57.896Z,2.55
2017-12-27T08:12:25.390Z,2.95
2017-12-27T08:14:52.843Z,2.42
2017-12-27T08:17:20.304Z,4.62
2017-12-27T08:19:47.772Z,3.65
2017-12-27T08:22:15.344Z,2.30
2017-12-27T08:24:42.875Z,2.30
2017-12-27T08:27:11.094Z,2.80
2017-12-27T08:29:38.572Z,3.08
2017-12-27T08:32:06.827Z,5.15
2017-12-27T08:34:35.068Z,2.58
2017-12-27T08:37:02.571Z,5.50
2017-12-27T08:39:30.075Z,6.15
2017-12-27T08:41:58.335Z,2.12
2017-12-27T08:44:26.572Z,2.50
2017-12-27T08:46:54.056Z,2.95
2017-12-27T08:49:21.515Z,2.92
2017-12-27T08:51:49.033Z,2.50
2017-12-27T08:54:17.273Z,5.15
2017-12-27T08:56:44.832Z,3.72
2017-12-27T08:59:13.084Z,2.40
2017-12-27T09:01:41.353Z,2.87
2017-12-27T09:04:09.627Z,2.47
2017-12-27T09:06:37.084Z,2.42
2017-12-27T09:09:04.599Z,2.35
2017-12-27T09:11:32.849Z,2.60
2017-12-27T09:14:01.124Z,3.15
2017-12-27T09:16:29.369Z,2.30
2017-12-27T09:18:57.634Z,2.55
2017-12-27T09:21:25.879Z,2.65
2017-12-27T09:23:53.440Z,3.33
2017-12-27T09:26:21.663Z,2.62
2017-12-27T09:28:49.139Z,2.65
2017-12-27T09:31:17.399Z,2.90
2017-12-27T09:33:45.664Z,3.50
2017-12-27T09:36:16.123Z,4.30
2017-12-27T09:38:43.607Z,2.03
2017-12-27T09:41:11.854Z,2.70
2017-12-27T09:43:39.411Z,2.15
2017-12-27T09:46:07.642Z,2.28
2017-12-27T09:48:35.123Z,2.05
2017-12-27T09:51:03.347Z,2.40
2017-12-27T09:53:30.863Z,2.22
2017-12-27T09:55:58.371Z,2.15
2017-12-27T09:58:26.605Z,2.25
2017-12-27T10:03:44.660Z,2.03
2017-12-27T10:06:12.141Z,2.33
2017-12-27T10:08:40.376Z,2.75
2017-12-27T10:11:07.931Z,2.05
2017-12-27T10:13:36.161Z,2.00
2017-12-27T10:16:03.636Z,1.52
2017-12-27T10:18:31.880Z,1.58
2017-12-27T10:20:59.336Z,1.58
2017-12-27T10:23:27.620Z,1.55
2017-12-27T10:25:55.079Z,1.20
2017-12-27T10:28:23.405Z,1.37
2017-12-27T10:30:51.640Z,1.85
2017-12-27T10:33:19.199Z,1.40
2017-12-27T10:35:46.749Z,1.75
2017-12-27T10:38:14.984Z,1.30
2017-12-27T10:40:42.456Z,1.20
2017-12-27T10:46:02.635Z,1.42
2017-12-27T10:51:21.759Z,1.85
2017-12-27T10:53:49.231Z,1.48
2017-12-27T10:56:16.692Z,1.48
2017-12-27T10:58:44.156Z,2.75
2017-12-27T11:01:11.640Z,2.20
2017-12-27T11:03:39.872Z,1.67
2017-12-27T11:06:07.359Z,2.10
2017-12-27T11:08:34.889Z,1.37
2017-12-27T11:11:02.360Z,1.75
2017-12-27T11:13:29.819Z,1.70
2017-12-27T11:15:58.264Z,1.55
2017-12-27T11:18:25.740Z,1.62
2017-12-27T11:20:53.190Z,1.50
2017-12-27T11:23:21.431Z,2.28
2017-12-27T11:25:48.996Z,1.20
2017-12-27T11:28:17.220Z,3.10
2017-12-27T11:30:44.691Z,1.70
2017-12-27T11:33:12.147Z,2.45
2017-12-27T11:35:40.552Z,1.25
2017-12-27T11:38:08.020Z,1.70
2017-12-27T11:40:35.483Z,2.15
2017-12-27T11:43:03.750Z,1.30
2017-12-27T11:45:31.999Z,1.60
2017-12-27T11:48:00.260Z,1.42
2017-12-27T11:50:28.543Z,1.30
2017-12-27T11:52:56.074Z,1.70
2017-12-27T11:55:24.297Z,1.62
2017-12-27T11:57:51.806Z,1.50
2017-12-27T12:00:20.463Z,3.42
2017-12-27T12:02:47.940Z,1.40
2017-12-27T12:05:16.157Z,1.92
2017-12-27T12:07:43.619Z,1.77
2017-12-27T12:10:11.850Z,1.70
2017-12-27T12:12:40.688Z,1.92
2017-12-27T12:17:59.925Z,2.97
2017-12-27T12:20:30.324Z,1.62
2017-12-27T12:22:57.833Z,1.67
2017-12-27T12:25:26.055Z,1.70
2017-12-27T12:27:53.519Z,1.50
2017-12-27T12:30:21.079Z,1.62
2017-12-27T12:32:49.357Z,2.15
2017-12-27T12:35:16.888Z,1.58
2017-12-27T12:37:45.141Z,2.37
2017-12-27T12:40:13.398Z,1.90
2017-12-27T12:42:41.660Z,1.67
2017-12-27T12:45:09.973Z,1.70
2017-12-27T12:47:37.427Z,2.30
2017-12-27T12:50:05.011Z,2.10
2017-12-27T12:52:33.238Z,2.15
2017-12-27T12:55:00.728Z,1.92
2017-12-27T12:57:28.210Z,9.65
2017-12-27T12:59:55.681Z,5.55
2017-12-27T13:02:23.234Z,2.20
2017-12-27T13:04:51.481Z,3.78
2017-12-27T13:07:19.057Z,4.03
2017-12-27T13:09:47.279Z,2.40
2017-12-27T13:12:14.747Z,2.90
2017-12-27T13:14:42.976Z,3.37
2017-12-27T13:17:10.437Z,1.83
2017-12-27T13:19:37.903Z,2.12
2017-12-27T13:22:06.144Z,1.40
2017-12-27T13:24:33.622Z,1.83
2017-12-27T13:27:02.755Z,3.33
2017-12-27T13:29:30.211Z,1.75
2017-12-27T13:31:57.682Z,2.25
2017-12-27T13:34:25.916Z,2.35
2017-12-27T13:36:53.377Z,2.25
2017-12-27T13:39:21.647Z,1.80
2017-12-27T13:41:49.877Z,2.22
2017-12-27T13:44:17.348Z,2.95
2017-12-27T13:46:45.575Z,2.33
2017-12-27T13:49:13.027Z,2.25
2017-12-27T13:51:40.584Z,1.60
2017-12-27T13:54:08.811Z,2.42
2017-12-27T13:56:36.286Z,2.70
2017-12-27T13:59:04.535Z,1.70
2017-12-27T14:01:32.087Z,2.37
2017-12-27T14:04:00.358Z,1.75
2017-12-27T14:06:28.608Z,5.28
2017-12-27T14:08:56.924Z,2.05
2017-12-27T14:11:24.468Z,1.92
2017-12-27T14:13:51.918Z,2.47
2017-12-27T14:16:19.403Z,1.65
2017-12-27T14:18:47.658Z,2.95
2017-12-27T14:21:15.924Z,2.85
2017-12-27T14:23:43.449Z,2.10
2017-12-27T14:26:11.708Z,1.60
2017-12-27T14:28:39.963Z,2.33
2017-12-27T14:31:08.239Z,4.05
2017-12-27T14:33:36.494Z,1.98
2017-12-27T14:36:04.756Z,1.60
2017-12-27T14:38:33.012Z,2.05
2017-12-27T14:41:01.232Z,1.75
2017-12-27T14:43:28.700Z,2.17
2017-12-27T14:45:56.160Z,2.15
2017-12-27T14:48:24.407Z,2.00
2017-12-27T14:50:52.668Z,3.08
2017-12-27T14:53:20.913Z,2.03
2017-12-27T14:55:48.359Z,2.20
2017-12-27T14:58:15.823Z,4.60
2017-12-27T15:00:44.075Z,2.03
2017-12-27T15:03:12.332Z,2.42
2017-12-27T15:05:40.556Z,2.33
2017-12-27T15:08:08.012Z,2.90
2017-12-27T15:10:37.011Z,2.33
2017-12-27T15:13:05.292Z,7.87
2017-12-27T15:15:33.517Z,3.20
2017-12-27T15:18:00.975Z,2.25
2017-12-27T15:20:29.239Z,2.60
2017-12-27T15:22:56.690Z,1.90
2017-12-27T15:25:24.211Z,2.55
2017-12-27T15:27:52.458Z,2.35
2017-12-27T15:30:19.915Z,2.37
2017-12-27T15:32:48.180Z,2.20
2017-12-27T15:35:16.411Z,3.47
2017-12-27T15:37:43.879Z,3.95
2017-12-27T15:40:12.120Z,13.10
2017-12-27T15:42:40.346Z,4.40
2017-12-27T15:45:07.839Z,1.80
2017-12-27T15:47:36.089Z,2.30
2017-12-27T15:50:03.551Z,2.17
2017-12-27T15:52:31.089Z,3.80
2017-12-27T15:54:59.327Z,2.85
2017-12-27T15:57:26.888Z,3.40
2017-12-27T15:59:55.114Z,2.47
2017-12-27T16:02:22.819Z,6.65
2017-12-27T16:04:50.283Z,2.30
2017-12-27T16:07:17.756Z,2.95
2017-12-27T16:09:45.212Z,3.55
2017-12-27T16:12:13.479Z,2.72
2017-12-27T16:14:41.735Z,2.87
2017-12-27T16:17:09.971Z,2.15
2017-12-27T16:19:37.463Z,2.45
2017-12-27T16:22:04.989Z,3.30
2017-12-27T16:24:32.501Z,3.25
2017-12-27T16:27:00.752Z,3.67
2017-12-27T16:29:28.971Z,3.25
2017-12-27T16:31:56.431Z,3.50
2017-12-27T16:34:23.991Z,5.35
2017-12-27T16:36:52.227Z,3.47
2017-12-27T16:39:19.699Z,10.55
2017-12-27T16:41:47.954Z,4.37
2017-12-27T16:44:16.216Z,4.43
2017-12-27T16:46:44.474Z,5.80
2017-12-27T16:49:12.699Z,5.25
2017-12-27T16:51:40.155Z,4.75
2017-12-27T16:54:07.615Z,5.40
2017-12-27T16:56:35.088Z,7.20
2017-12-27T16:59:02.578Z,6.37
2017-12-27T17:01:30.041Z,5.90
2017-12-27T17:03:57.499Z,6.57
2017-12-27T17:06:24.980Z,7.37
2017-12-27T17:08:52.435Z,5.55
2017-12-27T17:11:19.913Z,4.20
2017-12-27T17:13:48.178Z,4.37
2017-12-27T17:16:16.437Z,4.22
2017-12-27T17:18:44.655Z,3.90
2017-12-27T17:21:12.130Z,4.93
2017-12-27T17:23:40.426Z,6.10
2017-12-27T17:26:07.990Z,11.25
2017-12-27T17:28:35.533Z,6.80
2017-12-27T17:31:03.008Z,13.68
2017-12-27T17:33:30.572Z,13.10
2017-12-27T17:35:58.799Z,11.55
2017-12-27T17:38:26.259Z,9.20
2017-12-27T17:40:53.730Z,8.52
2017-12-27T17:43:21.211Z,6.82
2017-12-27T17:45:48.665Z,7.50
2017-12-27T17:48:16.135Z,5.20
2017-12-27T17:50:44.450Z,7.10
2017-12-27T17:53:11.939Z,6.78
2017-12-27T17:55:40.179Z,6.43
2017-12-27T17:58:07.740Z,8.32
2017-12-27T18:00:35.208Z,8.05
2017-12-27T18:03:02.673Z,7.18
2017-12-27T18:05:30.167Z,7.62
2017-12-27T18:07:58.436Z,9.85
2017-12-27T18:10:26.692Z,8.18
2017-12-27T18:12:54.913Z,8.45
2017-12-27T18:15:22.396Z,11.15
2017-12-27T18:17:50.664Z,19.08
2017-12-27T18:20:18.965Z,16.10
2017-12-27T18:22:46.468Z,16.33
2017-12-27T18:25:13.904Z,10.95
2017-12-27T18:27:42.151Z,13.25
2017-12-27T18:30:09.696Z,12.35
2017-12-27T18:32:37.964Z,10.20
2017-12-27T18:35:06.227Z,8.50
2017-12-27T18:37:34.451Z,12.88
2017-12-27T18:40:01.932Z,17.87
2017-12-27T18:42:30.183Z,23.12
2017-12-27T18:44:58.412Z,19.02
2017-12-27T18:47:25.887Z,18.70
2017-12-27T18:49:53.348Z,20.23
2017-12-27T18:52:20.824Z,20.88
2017-12-27T18:54:48.288Z,34.30
2017-12-27T18:57:15.758Z,31.90
2017-12-27T18:59:43.989Z,13.50
2017-12-27T19:02:11.563Z,15.07
2017-12-27T19:04:39.815Z,16.52
2017-12-27T19:07:08.056Z,12.70
2017-12-27T19:09:35.517Z,16.80
2017-12-27T19:12:03.768Z,14.07
2017-12-27T19:14:31.231Z,14.18
2017-12-27T19:16:59.460Z,12.88
2017-12-27T19:19:26.932Z,10.40
2017-12-27T19:21:55.182Z,12.32
2017-12-27T19:24:23.414Z,11.68
2017-12-27T19:26:50.878Z,11.80
2017-12-27T19:29:19.140Z,11.90
2017-12-27T19:31:47.364Z,10.75
2017-12-27T19:34:14.840Z,10.77
2017-12-27T19:36:43.101Z,13.35
2017-12-27T19:39:11.336Z,10.40
2017-12-27T19:41:38.808Z,11.90
2017-12-27T19:44:07.033Z,12.00
2017-12-27T19:46:34.497Z,11.05
2017-12-27T19:49:02.055Z,17.35
2017-12-27T19:51:30.312Z,12.13
2017-12-27T19:53:58.622Z,13.30
2017-12-27T19:56:26.073Z,11.48
2017-12-27T19:58:53.542Z,12.95
2017-12-27T20:01:21.095Z,12.20
2017-12-27T20:03:49.332Z,12.07
2017-12-27T20:06:16.790Z,10.95
2017-12-27T20:08:44.261Z,13.62
2017-12-27T20:11:11.788Z,10.82
2017-12-27T20:13:40.043Z,12.40
2017-12-27T20:16:08.283Z,13.55
2017-12-27T20:18:35.759Z,11.12
2017-12-27T20:21:04.016Z,11.07
2017-12-27T20:23:32.367Z,12.60
2017-12-27T20:26:00.637Z,13.40
2017-12-27T20:28:28.860Z,13.52
2017-12-27T20:30:56.432Z,10.13
2017-12-27T20:33:24.696Z,17.58
2017-12-27T20:35:52.932Z,8.95
2017-12-27T20:38:20.396Z,8.07
2017-12-27T20:40:48.622Z,10.15
2017-12-27T20:43:16.083Z,10.25
2017-12-27T20:45:43.556Z,10.90
2017-12-27T20:48:11.015Z,10.30
2017-12-27T20:50:38.488Z,14.20
2017-12-27T20:53:06.013Z,11.18
2017-12-27T20:55:33.484Z,10.40
2017-12-27T20:58:01.054Z,10.40
2017-12-27T21:00:29.275Z,10.93
2017-12-27T21:02:56.755Z,12.37
2017-12-27T21:05:25.008Z,9.50
2017-12-27T21:07:53.278Z,13.20
2017-12-27T21:10:21.544Z,9.57
2017-12-27T21:12:49.775Z,11.70
2017-12-27T21:15:17.331Z,12.15
2017-12-27T21:17:45.580Z,10.98
2017-12-27T21:20:13.036Z,8.80
2017-12-27T21:22:41.291Z,9.55
2017-12-27T21:25:09.520Z,9.30
2017-12-27T21:27:37.037Z,11.80
2017-12-27T21:30:04.539Z,7.55
2017-12-27T21:32:32.072Z,7.15
2017-12-27T21:34:59.524Z,9.93
2017-12-27T21:37:27.756Z,9.90
2017-12-27T21:39:55.330Z,7.05
2017-12-27T21:42:23.563Z,10.45
2017-12-27T21:44:51.020Z,7.07
2017-12-27T21:47:38.391Z,16.48
2017-12-27T21:50:05.894Z,10.35
2017-12-27T21:52:34.109Z,11.18
2017-12-27T21:55:01.571Z,9.50
2017-12-27T21:57:29.792Z,7.12
2017-12-27T22:00:02.880Z,8.15
2017-12-27T22:02:30.360Z,11.20
2017-12-27T22:04:58.591Z,11.80
2017-12-27T22:07:26.157Z,8.45
2017-12-27T22:09:54.464Z,9.27
2017-12-27T22:12:22.648Z,8.68
2017-12-27T22:14:50.111Z,11.05
2017-12-27T22:17:18.356Z,10.93
2017-12-27T22:19:45.850Z,6.15
2017-12-27T22:22:13.296Z,11.07
2017-12-27T22:24:40.756Z,9.18
2017-12-27T22:27:08.260Z,8.88
2017-12-27T22:29:35.763Z,12.18
2017-12-27T22:32:03.238Z,13.55
2017-12-27T22:34:31.488Z,12.30
2017-12-27T22:36:59.734Z,14.50
2017-12-27T22:39:27.295Z,15.88
2017-12-27T22:41:55.565Z,16.95
2017-12-27T22:44:23.804Z,22.40
2017-12-27T22:46:51.285Z,21.23
2017-12-27T22:49:18.800Z,22.42
2017-12-27T22:51:47.036Z,19.55
2017-12-27T22:54:14.499Z,22.48
2017-12-27T22:56:42.737Z,16.65
2017-12-27T22:59:10.239Z,18.92
2017-12-27T23:01:37.723Z,22.55
2017-12-27T23:04:06.719Z,18.67
2017-12-27T23:06:34.216Z,18.10
2017-12-27T23:09:01.698Z,9.52
2017-12-27T23:11:29.216Z,7.53
2017-12-27T23:13:56.691Z,5.25
2017-12-27T23:16:25.053Z,3.83
2017-12-27T23:18:53.314Z,4.75
2017-12-27T23:21:21.628Z,5.30
2017-12-27T23:23:49.136Z,3.50
2017-12-27T23:26:17.354Z,5.10
2017-12-27T23:28:44.828Z,3.17
2017-12-27T23:31:12.290Z,2.65
2017-12-27T23:33:40.582Z,2.75
2017-12-27T23:36:08.850Z,2.70
2017-12-27T23:38:36.344Z,2.00
2017-12-27T23:41:04.566Z,2.75
2017-12-27T23:43:32.020Z,2.10
2017-12-27T23:45:59.489Z,2.72
2017-12-27T23:48:27.707Z,2.10
2017-12-27T23:50:55.188Z,1.75
2017-12-27T23:53:23.408Z,1.85
2017-12-27T23:55:50.891Z,2.45
2017-12-27T23:58:19.151Z,1.50
